Time;durP1;ratioP1;P1;durP2;ratioP2;P2;SDS_P1;SDS_P2;PMS_P1;PMS_P2;Temp;Humidity;BMP_temperature;BMP_pressure;BME280_temperature;BME280_humidity;BME280_pressure;Samples;Min_cycle;Max_cycle;Signal;HPM_P1;HPM_P2
2022/12/25 00:00:41;;;;;;;25.73;6.22;;;;;;;8.21;100.00;101436.25;4990259;28;20054;-65
2022/12/25 00:03:08;;;;;;;21.10;6.50;;;;;;;8.22;100.00;101433.53;4988120;28;20058;-65
2022/12/25 00:05:37;;;;;;;21.17;6.78;;;;;;;8.23;100.00;101424.75;4980211;28;20050;-65
2022/12/25 00:08:05;;;;;;;23.58;6.78;;;;;;;8.27;100.00;101426.19;4978808;28;20782;-64
2022/12/25 00:10:32;;;;;;;29.25;7.05;;;;;;;8.29;100.00;101419.06;4979693;28;20042;-64
2022/12/25 00:12:58;;;;;;;28.15;7.35;;;;;;;8.29;100.00;101420.81;4982684;28;20050;-66
2022/12/25 00:15:25;;;;;;;23.90;5.75;;;;;;;8.29;100.00;101418.19;4971674;28;20058;-65
2022/12/25 00:17:52;;;;;;;29.77;6.40;;;;;;;8.36;100.00;101415.97;4984903;28;20528;-65
2022/12/25 00:20:19;;;;;;;20.13;6.22;;;;;;;8.41;100.00;101419.94;4980292;28;20064;-65
2022/12/25 00:22:46;;;;;;;26.27;6.65;;;;;;;8.44;100.00;101411.00;4966126;28;20047;-65
2022/12/25 00:25:12;;;;;;;21.15;6.38;;;;;;;8.46;100.00;101407.31;4987432;28;20081;-65
2022/12/25 00:27:39;;;;;;;22.30;6.85;;;;;;;8.48;100.00;101394.97;4984002;28;20775;-64
2022/12/25 00:30:06;;;;;;;23.60;5.50;;;;;;;8.51;100.00;101397.34;4979126;28;20082;-65
2022/12/25 00:32:36;;;;;;;20.77;5.97;;;;;;;8.56;100.00;101401.38;4984042;28;20068;-64
2022/12/25 00:35:04;;;;;;;26.15;6.25;;;;;;;8.56;100.00;101409.22;4978594;28;20082;-65
2022/12/25 00:37:30;;;;;;;24.48;5.85;;;;;;;8.54;100.00;101411.97;4968229;28;20081;-65
2022/12/25 00:39:56;;;;;;;21.65;6.50;;;;;;;8.59;100.00;101411.63;4980272;28;20050;-66
2022/12/25 00:42:25;;;;;;;23.42;5.97;;;;;;;8.58;100.00;101399.47;4978734;28;20057;-64
2022/12/25 00:44:52;;;;;;;17.95;5.72;;;;;;;8.57;100.00;101390.00;4965173;28;20050;-66
2022/12/25 00:47:18;;;;;;;20.40;5.95;;;;;;;8.59;100.00;101385.47;4985969;28;20076;-64
2022/12/25 00:49:45;;;;;;;21.60;6.25;;;;;;;8.59;100.00;101395.94;4991881;28;20058;-66
2022/12/25 00:52:11;;;;;;;23.77;5.50;;;;;;;8.62;100.00;101399.13;4979379;28;20061;-65
2022/12/25 00:54:38;;;;;;;18.05;5.38;;;;;;;8.64;100.00;101406.84;4989606;28;20113;-65
2022/12/25 00:57:04;;;;;;;18.95;5.30;;;;;;;8.65;100.00;101390.22;4973437;28;20060;-65
2022/12/25 00:59:32;;;;;;;23.23;5.70;;;;;;;8.70;100.00;101401.13;4985090;28;20542;-65
2022/12/25 01:04:44;;;;;;;19.38;5.53;;;;;;;8.69;100.00;101402.94;4983055;28;20450;-66
2022/12/25 01:07:10;;;;;;;21.20;5.20;;;;;;;8.67;100.00;101402.22;4991976;28;20054;-64
2022/12/25 01:12:23;;;;;;;26.83;6.30;;;;;;;8.71;100.00;101400.19;4976803;28;20046;-65
2022/12/25 01:14:50;;;;;;;26.85;5.60;;;;;;;8.69;100.00;101407.34;4980758;28;20058;-64
2022/12/25 01:17:16;;;;;;;26.13;6.45;;;;;;;8.74;100.00;101409.56;4979164;28;20047;-65
2022/12/25 01:19:43;;;;;;;19.88;6.05;;;;;;;8.77;100.00;101404.13;4980862;28;20062;-65
2022/12/25 01:22:09;;;;;;;24.30;5.35;;;;;;;8.75;100.00;101404.22;4985039;28;20054;-65
2022/12/25 01:24:35;;;;;;;19.98;5.63;;;;;;;8.78;100.00;101411.00;4997358;28;20049;-66
2022/12/25 01:27:02;;;;;;;20.88;5.47;;;;;;;8.77;100.00;101414.59;4969822;28;20065;-66
2022/12/25 01:29:28;;;;;;;18.92;5.72;;;;;;;8.78;100.00;101418.84;4976121;28;20409;-65
2022/12/25 01:31:55;;;;;;;19.65;6.15;;;;;;;8.77;100.00;101420.63;4977771;28;20058;-65
2022/12/25 01:34:21;;;;;;;22.50;5.72;;;;;;;8.80;100.00;101423.03;4993251;28;20058;-66
2022/12/25 01:36:48;;;;;;;17.38;5.85;;;;;;;8.81;100.00;101421.22;4989151;28;20054;-65
2022/12/25 01:39:14;;;;;;;18.05;4.95;;;;;;;8.82;100.00;101413.28;4983657;28;20510;-67
2022/12/25 01:41:40;;;;;;;19.42;5.57;;;;;;;8.82;100.00;101418.50;4982191;28;20060;-65
2022/12/25 01:44:27;;;;;;;20.65;5.68;;;;;;;8.84;100.00;101418.34;4979680;28;20057;-65
2022/12/25 01:46:53;;;;;;;22.95;5.95;;;;;;;8.79;100.00;101415.28;4984968;28;20061;-65
2022/12/25 01:49:24;;;;;;;20.15;5.22;;;;;;;8.84;100.00;101420.97;4991447;28;20050;-65
2022/12/25 01:51:55;;;;;;;17.25;6.25;;;;;;;8.84;100.00;101407.91;4980208;28;20057;-65
2022/12/25 01:54:27;;;;;;;24.13;5.38;;;;;;;8.87;100.00;101402.44;4982189;28;20462;-66
2022/12/25 01:56:59;;;;;;;21.38;5.95;;;;;;;8.82;100.00;101408.03;4972064;28;20175;-65
2022/12/25 01:59:27;;;;;;;21.17;6.07;;;;;;;8.84;100.00;101415.75;4987083;28;20058;-65
2022/12/25 02:01:55;;;;;;;23.50;6.45;;;;;;;8.82;100.00;101418.50;4979913;28;20054;-65
2022/12/25 02:04:40;;;;;;;25.17;6.57;;;;;;;8.84;100.00;101415.75;4988967;28;20152;-65
2022/12/25 02:07:14;;;;;;;21.08;6.55;;;;;;;8.83;100.00;101417.53;4980133;28;20054;-65
2022/12/25 02:09:41;;;;;;;20.40;5.50;;;;;;;8.90;100.00;101426.59;4980233;28;20065;-66
2022/12/25 02:12:13;;;;;;;19.73;5.10;;;;;;;8.92;100.00;101429.09;4993830;28;20060;-66
2022/12/25 02:14:40;;;;;;;17.30;5.55;;;;;;;8.86;100.00;101430.38;4989317;28;20058;-64
2022/12/25 02:17:26;;;;;;;19.27;6.03;;;;;;;8.89;100.00;101431.94;4991528;28;20054;-66
2022/12/25 02:20:15;;;;;;;21.27;5.78;;;;;;;8.91;100.00;101427.41;4977727;28;20050;-65
2022/12/25 02:22:58;;;;;;;21.55;6.38;;;;;;;8.92;100.00;101434.31;4977904;28;20104;-67
2022/12/25 02:25:46;;;;;;;19.67;5.55;;;;;;;8.90;100.00;101425.75;4961055;28;20049;-65
2022/12/25 02:28:24;;;;;;;18.55;5.70;;;;;;;8.92;100.00;101429.09;4987333;28;20057;-65
2022/12/25 02:30:57;;;;;;;22.65;6.38;;;;;;;8.91;100.00;101423.00;4980938;28;20062;-66
2022/12/25 02:36:37;;;;;;;20.13;5.65;;;;;;;8.90;100.00;101420.53;4974394;28;20478;-65
2022/12/25 02:42:03;;;;;;;23.08;6.30;;;;;;;8.90;100.00;101428.38;4982556;28;20046;-65
2022/12/25 03:06:41;;;;;;;21.48;5.68;;;;;;;8.91;100.00;101423.00;4994831;28;20041;-65
2022/12/25 03:07:17;;;;;;;15.38;5.03;;;;;;;8.87;100.00;101384.94;4977065;28;20093;-66
2022/12/25 03:12:54;;;;;;;20.13;5.82;;;;;;;8.87;100.00;101387.56;4975752;28;20065;-66
2022/12/25 03:18:10;;;;;;;17.30;6.10;;;;;;;8.86;100.00;101372.84;4969935;28;20054;-66
2022/12/25 03:29:01;;;;;;;13.48;4.50;;;;;;;8.87;100.00;101342.25;4983343;28;20078;-65
2022/12/25 03:31:36;;;;;;;11.65;5.15;;;;;;;8.87;100.00;101332.63;4982716;28;20443;-66
2022/12/25 04:36:11;;;;;;;15.52;4.53;;;;;;;8.95;100.00;101368.66;4989328;28;20569;-64
2022/12/25 04:38:38;;;;;;;13.38;4.85;;;;;;;8.98;100.00;101363.19;4993761;28;20062;-65
2022/12/25 04:41:06;;;;;;;11.45;4.20;;;;;;;9.03;100.00;101370.66;4980380;28;20399;-64
2022/12/25 04:43:33;;;;;;;11.50;4.83;;;;;;;9.03;100.00;101368.84;4979643;28;20054;-66
2022/12/25 04:46:00;;;;;;;11.73;4.45;;;;;;;9.09;100.00;101372.78;4979411;28;20053;-64
2022/12/25 04:48:30;;;;;;;10.32;3.70;;;;;;;9.09;100.00;101359.69;4993606;28;20054;-66
2022/12/25 04:50:57;;;;;;;11.55;4.00;;;;;;;9.14;100.00;101360.16;4980049;28;20050;-66
2022/12/25 04:53:24;;;;;;;11.32;3.67;;;;;;;9.17;100.00;101359.88;4993597;28;20078;-65
2022/12/25 04:55:59;;;;;;;12.63;4.10;;;;;;;9.25;100.00;101360.13;4983384;28;20570;-64
2022/12/25 04:58:26;;;;;;;10.75;3.72;;;;;;;9.24;100.00;101350.59;4977974;28;20057;-65
2022/12/25 05:00:52;;;;;;;12.80;4.88;;;;;;;9.24;100.00;101339.31;4985581;28;20061;-64
2022/12/25 05:03:19;;;;;;;8.85;3.45;;;;;;;9.21;100.00;101331.69;4984807;28;20483;-64
2022/12/25 05:05:47;;;;;;;8.80;4.35;;;;;;;9.24;100.00;101331.44;4985704;28;20054;-64
2022/12/25 05:08:13;;;;;;;9.45;3.65;;;;;;;9.20;100.00;101328.25;4985685;28;20058;-65
2022/12/25 05:10:40;;;;;;;14.43;4.00;;;;;;;9.14;100.00;101325.31;4982861;28;20057;-65
2022/12/25 05:13:06;;;;;;;9.82;4.13;;;;;;;9.12;100.00;101330.66;4974145;28;20078;-64
2022/12/25 05:15:33;;;;;;;9.20;3.33;;;;;;;9.04;100.00;101333.91;4985781;28;20061;-64
2022/12/25 05:18:01;;;;;;;11.13;3.47;;;;;;;9.07;100.00;101338.88;4989770;28;20470;-67
2022/12/25 05:20:27;;;;;;;10.35;3.38;;;;;;;9.11;100.00;101339.44;4982374;28;20054;-63
2022/12/25 05:23:00;;;;;;;10.48;3.45;;;;;;;9.07;100.00;101325.78;4987914;28;20140;-64
2022/12/25 05:25:26;;;;;;;10.07;3.95;;;;;;;9.08;100.00;101317.00;4981751;28;20050;-63
2022/12/25 05:27:52;;;;;;;10.57;4.03;;;;;;;9.03;100.00;101316.50;4977180;28;20050;-64
2022/12/25 05:30:19;;;;;;;11.27;4.78;;;;;;;9.01;100.00;101317.59;4985749;28;20137;-64
2022/12/25 05:32:47;;;;;;;8.82;4.22;;;;;;;9.02;100.00;101322.72;4979666;28;20903;-64
2022/12/25 05:35:13;;;;;;;11.55;4.38;;;;;;;8.95;100.00;101324.16;4988310;28;20342;-65
2022/12/25 05:37:40;;;;;;;7.80;3.85;;;;;;;8.89;100.00;101320.25;4976862;28;20052;-66
2022/12/25 05:40:07;;;;;;;12.32;4.32;;;;;;;8.88;100.00;101307.31;4978359;28;20074;-64
2022/12/25 05:42:33;;;;;;;11.38;4.10;;;;;;;8.89;100.00;101306.34;4983908;28;20056;-65
2022/12/25 05:45:00;;;;;;;10.07;5.43;;;;;;;8.82;100.00;101306.03;4981838;28;20054;-64
2022/12/25 05:47:26;;;;;;;12.00;4.35;;;;;;;8.86;100.00;101310.06;4988396;28;20078;-64
2022/12/25 05:49:52;;;;;;;11.80;4.40;;;;;;;8.70;100.00;101312.22;4983654;28;20572;-65
2022/12/25 05:52:19;;;;;;;12.05;4.93;;;;;;;8.60;100.00;101306.88;4986022;28;20046;-65
2022/12/25 05:54:45;;;;;;;12.02;5.57;;;;;;;8.54;100.00;101304.75;4986540;28;20400;-64
2022/12/25 05:57:12;;;;;;;11.95;4.70;;;;;;;8.56;100.00;101294.19;4988484;28;20144;-65
2022/12/25 05:59:38;;;;;;;10.57;4.88;;;;;;;8.46;100.00;101281.81;4991183;28;20075;-64
2022/12/25 06:02:04;;;;;;;14.45;5.15;;;;;;;8.39;100.00;101274.56;4981250;28;20396;-63
2022/12/25 06:04:31;;;;;;;14.63;4.68;;;;;;;8.40;100.00;101278.84;4993452;28;20050;-65
2022/12/25 06:06:58;;;;;;;13.57;5.10;;;;;;;8.43;100.00;101278.66;4976265;28;20053;-67
2022/12/25 06:09:24;;;;;;;10.35;4.97;;;;;;;8.36;100.00;101286.09;4981688;28;20061;-65
2022/12/25 06:11:50;;;;;;;10.63;4.70;;;;;;;8.40;100.00;101292.72;4991831;28;20057;-66
2022/12/25 06:14:17;;;;;;;11.48;4.75;;;;;;;8.39;100.00;101295.47;4980864;28;20065;-66
2022/12/25 06:16:43;;;;;;;16.27;5.30;;;;;;;8.39;100.00;101285.84;4990814;28;20065;-66
2022/12/25 06:19:12;;;;;;;10.85;5.07;;;;;;;8.46;100.00;101279.22;4986422;28;20058;-66
2022/12/25 06:21:38;;;;;;;;;;;;;;;8.45;100.00;101282.78;4982747;28;20129;-65
2022/12/25 06:24:05;;;;;;;10.45;4.30;;;;;;;8.41;100.00;101280.50;4980755;28;19925;-66
2022/12/25 06:26:32;;;;;;;12.80;4.47;;;;;;;8.35;100.00;101268.75;4984205;28;20093;-66
2022/12/25 06:29:01;;;;;;;12.57;4.20;;;;;;;8.39;100.00;101253.63;4991265;28;20783;-66
2022/12/25 06:31:28;;;;;;;12.35;4.55;;;;;;;8.35;100.00;101260.06;4985934;28;20508;-67
2022/12/25 06:33:55;;;;;;;12.48;4.97;;;;;;;8.28;100.00;101276.22;4998718;28;20042;-66
2022/12/25 06:36:24;;;;;;;10.18;5.15;;;;;;;8.24;100.00;101272.19;4976103;28;20062;-66
2022/12/25 06:38:52;;;;;;;14.35;5.35;;;;;;;8.22;100.00;101273.28;4985464;28;20394;-66
2022/12/25 06:41:23;;;;;;;11.05;4.60;;;;;;;8.21;100.00;101275.06;4988030;28;20091;-66
2022/12/25 06:43:52;;;;;;;12.00;4.93;;;;;;;8.23;100.00;101270.56;4981974;28;20061;-66
2022/12/25 06:46:20;;;;;;;13.85;5.13;;;;;;;8.24;100.00;101258.31;4995459;28;20045;-66
2022/12/25 06:48:48;;;;;;;16.33;5.40;;;;;;;8.17;100.00;101252.72;4983234;28;20081;-67
2022/12/25 06:51:19;;;;;;;14.70;6.30;;;;;;;8.24;100.00;101256.53;4984645;28;20095;-65
2022/12/25 06:53:47;;;;;;;12.35;5.38;;;;;;;8.28;100.00;101254.50;4980729;28;20058;-65
2022/12/25 06:56:16;;;;;;;12.02;6.05;;;;;;;8.29;100.00;101243.94;4987734;28;20045;-67
2022/12/25 06:58:50;;;;;;;12.50;5.75;;;;;;;8.30;100.00;101240.34;4993914;28;20554;-66
2022/12/25 07:01:26;;;;;;;16.27;5.85;;;;;;;8.37;100.00;101230.25;4985196;28;20049;-66
2022/12/25 07:04:00;;;;;;;11.10;5.22;;;;;;;8.34;100.00;101230.50;4985279;28;20092;-66
2022/12/25 07:06:26;;;;;;;12.15;5.55;;;;;;;8.35;100.00;101226.09;4989711;28;20077;-66
2022/12/25 07:08:53;;;;;;;11.50;5.60;;;;;;;8.32;100.00;101222.75;4995295;28;20517;-64
2022/12/25 07:11:20;;;;;;;12.93;4.75;;;;;;;8.41;100.00;101218.63;4986665;28;20065;-65
2022/12/25 07:13:47;;;;;;;12.55;5.28;;;;;;;8.40;100.00;101216.09;4990462;28;20050;-66
2022/12/25 07:16:15;;;;;;;11.02;5.10;;;;;;;8.41;100.00;101205.56;4988196;28;20483;-66
2022/12/25 07:18:42;;;;;;;10.82;5.40;;;;;;;8.43;100.00;101202.84;4975768;28;20061;-66
2022/12/25 07:21:11;;;;;;;11.20;5.85;;;;;;;8.51;100.00;101208.28;4986782;28;20077;-65
2022/12/25 07:23:38;;;;;;;11.55;6.22;;;;;;;8.46;100.00;101213.03;4987718;28;20426;-65
2022/12/25 07:26:04;;;;;;;13.05;5.82;;;;;;;8.43;100.00;101226.34;4994078;28;20054;-66
2022/12/25 07:28:32;;;;;;;13.38;4.80;;;;;;;8.50;100.00;101224.91;4972987;28;20495;-65
2022/12/25 07:31:04;;;;;;;9.95;4.70;;;;;;;8.54;100.00;101238.56;4991546;28;20046;-66
2022/12/25 07:33:31;;;;;;;11.90;5.00;;;;;;;8.57;100.00;101240.94;4981018;28;20800;-67
2022/12/25 07:35:58;;;;;;;10.63;4.85;;;;;;;8.57;100.00;101252.22;4979901;28;20114;-67
2022/12/25 07:38:25;;;;;;;8.90;4.35;;;;;;;8.57;100.00;101254.84;4970350;28;20477;-66
2022/12/25 07:40:52;;;;;;;14.23;5.15;;;;;;;8.58;100.00;101258.28;4946407;28;20438;-67
2022/12/25 07:43:19;;;;;;;11.38;5.70;;;;;;;8.60;100.00;101257.19;4999395;28;20104;-66
2022/12/25 07:45:46;;;;;;;13.85;5.15;;;;;;;8.66;100.00;101240.19;4983612;28;20052;-65
2022/12/25 07:48:12;;;;;;;9.23;5.00;;;;;;;8.66;100.00;101241.03;4985099;28;20105;-66
2022/12/25 07:50:42;;;;;;;11.85;4.40;;;;;;;8.69;100.00;101253.03;4988492;28;20576;-66
2022/12/25 07:53:08;;;;;;;11.50;5.03;;;;;;;8.72;100.00;101268.44;4976065;28;20193;-66
2022/12/25 07:55:35;;;;;;;13.00;4.78;;;;;;;8.75;100.00;101247.28;4961492;28;20050;-66
2022/12/25 07:58:01;;;;;;;9.63;3.92;;;;;;;8.82;100.00;101242.38;4976273;28;20517;-65
2022/12/25 08:00:31;;;;;;;10.07;4.53;;;;;;;8.87;100.00;101248.09;4977655;28;20054;-67
2022/12/25 08:02:58;;;;;;;12.25;4.55;;;;;;;8.91;100.00;101245.09;4979826;28;20062;-67
2022/12/25 08:05:25;;;;;;;11.82;4.90;;;;;;;8.92;100.00;101240.69;4984453;28;20045;-67
2022/12/25 08:07:54;;;;;;;8.55;4.30;;;;;;;8.95;100.00;101240.44;4990078;28;20054;-66
2022/12/25 08:10:23;;;;;;;9.68;4.50;;;;;;;8.95;100.00;101250.91;4981686;28;20141;-67
2022/12/25 08:12:50;;;;;;;10.38;3.97;;;;;;;9.00;100.00;101253.16;4979959;28;20055;-64
2022/12/25 08:15:17;;;;;;;9.57;3.83;;;;;;;9.02;100.00;101257.31;4972390;28;20473;-64
2022/12/25 08:17:43;;;;;;;9.00;3.97;;;;;;;9.05;100.00;101256.22;4982627;28;20050;-65
2022/12/25 08:20:10;;;;;;;10.38;4.28;;;;;;;9.10;100.00;101267.16;4984185;28;20054;-65
2022/12/25 08:22:36;;;;;;;10.88;4.35;;;;;;;9.05;100.00;101269.28;4979861;28;20551;-64
2022/12/25 08:25:03;;;;;;;10.63;4.05;;;;;;;9.04;100.00;101270.28;4987207;28;20092;-64
2022/12/25 08:27:30;;;;;;;10.38;3.97;;;;;;;9.05;100.00;101272.72;4980126;28;20050;-65
2022/12/25 08:29:56;;;;;;;9.98;3.67;;;;;;;9.06;100.00;101268.34;4984960;28;20061;-66
2022/12/25 08:32:22;;;;;;;9.48;4.32;;;;;;;9.09;100.00;101265.47;4978373;28;20112;-66
2022/12/25 08:34:49;;;;;;;8.43;4.15;;;;;;;9.09;100.00;101261.09;4988250;28;20108;-66
2022/12/25 08:37:17;;;;;;;12.57;4.40;;;;;;;9.09;100.00;101257.63;4986211;28;20078;-66
2022/12/25 08:39:44;;;;;;;10.20;4.70;;;;;;;9.12;100.00;101257.38;4979219;28;20064;-67
2022/12/25 08:42:11;;;;;;;10.52;4.30;;;;;;;9.07;100.00;101254.28;4987757;28;20506;-66
2022/12/25 08:44:37;;;;;;;10.82;3.45;;;;;;;9.16;100.00;101237.84;4964203;28;20797;-66
2022/12/25 08:47:04;;;;;;;10.35;4.05;;;;;;;9.13;100.00;101239.88;4991107;28;20062;-66
2022/12/25 08:49:30;;;;;;;8.55;3.80;;;;;;;9.18;100.00;101232.50;4987994;28;20096;-66
2022/12/25 08:51:57;;;;;;;14.30;4.35;;;;;;;9.12;100.00;101228.59;4982003;28;20054;-66
2022/12/25 08:54:24;;;;;;;9.05;3.85;;;;;;;9.17;100.00;101221.16;4985547;28;20133;-68
2022/12/25 08:56:50;;;;;;;10.05;4.40;;;;;;;9.21;100.00;101225.22;4975208;28;20407;-66
2022/12/25 08:59:16;;;;;;;8.73;3.17;;;;;;;9.25;100.00;101225.78;4975494;28;20050;-66
2022/12/25 09:01:43;;;;;;;8.70;3.60;;;;;;;9.27;100.00;101235.19;4978165;28;20054;-66
2022/12/25 09:04:09;;;;;;;9.30;3.88;;;;;;;9.19;100.00;101239.38;4987162;28;20050;-67
2022/12/25 09:06:36;;;;;;;12.13;4.20;;;;;;;9.17;100.00;101247.34;4982509;28;20057;-65
2022/12/25 09:09:03;;;;;;;8.50;3.78;;;;;;;9.12;100.00;101253.94;4979605;28;20058;-65
2022/12/25 09:11:29;;;;;;;12.38;3.80;;;;;;;9.13;100.00;101239.88;4983400;28;20054;-66
2022/12/25 09:13:56;;;;;;;9.02;3.75;;;;;;;9.16;100.00;101243.09;4976435;28;20344;-66
2022/12/25 09:16:22;;;;;;;7.50;3.00;;;;;;;9.21;100.00;101243.53;4984187;28;20054;-67
2022/12/25 09:18:49;;;;;;;6.35;3.42;;;;;;;9.23;100.00;101249.47;4978006;28;20062;-67
2022/12/25 09:21:19;;;;;;;8.48;3.90;;;;;;;9.20;100.00;101251.50;4989107;28;20050;-66
2022/12/25 09:23:45;;;;;;;10.27;3.75;;;;;;;9.21;100.00;101242.69;4988598;28;20387;-66
2022/12/25 09:26:14;;;;;;;5.35;3.30;;;;;;;9.33;100.00;101241.69;4978821;28;20867;-66
2022/12/25 09:28:41;;;;;;;10.55;3.80;;;;;;;9.33;100.00;101239.06;4973257;28;20151;-65
2022/12/25 09:31:17;;;;;;;10.50;3.90;;;;;;;9.38;100.00;101239.50;4962482;28;20494;-66
2022/12/25 09:33:44;;;;;;;9.63;3.33;;;;;;;9.39;100.00;101235.09;4987749;28;20357;-66
2022/12/25 09:36:10;;;;;;;13.50;3.42;;;;;;;9.36;100.00;101244.03;4980898;28;20046;-66
2022/12/25 09:38:37;;;;;;;9.18;3.78;;;;;;;9.40;100.00;101249.84;4989467;28;20594;-66
2022/12/25 09:41:15;;;;;;;8.13;3.83;;;;;;;9.41;100.00;101249.72;4989477;28;20054;-66
2022/12/25 09:44:08;;;;;;;8.75;4.22;;;;;;;9.36;100.00;101254.50;4985270;28;20057;-66
2022/12/25 09:46:43;;;;;;;6.70;3.58;;;;;;;9.42;100.00;101261.03;4984893;28;20046;-66
2022/12/25 09:49:34;;;;;;;7.28;3.95;;;;;;;9.43;100.00;101266.16;4991800;28;20062;-66
2022/12/25 09:52:07;;;;;;;8.15;3.88;;;;;;;9.46;100.00;101268.50;4991687;28;20053;-66
2022/12/25 09:54:40;;;;;;;11.32;3.95;;;;;;;9.44;100.00;101249.47;4984530;28;20511;-66
2022/12/25 09:57:10;;;;;;;7.10;3.75;;;;;;;9.43;100.00;101245.19;4990409;28;20058;-65
2022/12/25 09:59:37;;;;;;;6.78;3.42;;;;;;;9.39;100.00;101233.31;4987476;28;20070;-65
2022/12/25 10:02:48;;;;;;;7.63;3.95;;;;;;;9.48;100.00;101219.44;4988166;28;20050;-66
2022/12/25 10:05:41;;;;;;;11.43;3.33;;;;;;;9.52;100.00;101214.78;4977506;28;20045;-67
2022/12/25 10:08:46;;;;;;;7.13;3.22;;;;;;;9.59;100.00;101215.09;4985757;28;20058;-65
2022/12/25 10:11:31;;;;;;;7.75;3.40;;;;;;;9.61;100.00;101203.53;4981702;28;20133;-66
2022/12/25 10:14:21;;;;;;;10.25;3.55;;;;;;;9.60;100.00;101214.13;4991891;28;20046;-66
2022/12/25 10:16:59;;;;;;;8.93;3.65;;;;;;;9.51;100.00;101215.75;4974474;28;20656;-67
2022/12/25 10:19:34;;;;;;;8.32;3.83;;;;;;;9.64;100.00;101203.28;4980450;28;20143;-65
2022/12/25 10:22:08;;;;;;;10.43;3.85;;;;;;;9.68;100.00;101206.44;4979544;28;20061;-64
2022/12/25 10:24:34;;;;;;;7.28;3.35;;;;;;;9.59;100.00;101213.31;4983764;28;20544;-64
2022/12/25 10:27:06;;;;;;;8.32;3.65;;;;;;;9.68;100.00;101215.16;4989657;28;20065;-66
2022/12/25 10:29:34;;;;;;;9.60;3.78;;;;;;;9.71;100.00;101206.19;4981785;28;20050;-64
2022/12/25 10:32:00;;;;;;;10.20;3.72;;;;;;;9.66;100.00;101190.88;4983302;28;20042;-64
2022/12/25 10:34:27;;;;;;;8.40;3.22;;;;;;;9.68;100.00;101185.47;4978485;28;20057;-64
2022/12/25 10:36:54;;;;;;;8.48;3.97;;;;;;;9.67;100.00;101197.75;4988788;28;20082;-63
2022/12/25 10:39:24;;;;;;;8.15;3.80;;;;;;;9.70;100.00;101194.03;4994629;28;20058;-63
2022/12/25 10:42:18;;;;;;;7.43;3.78;;;;;;;9.70;100.00;101180.94;4981026;28;20812;-63
2022/12/25 10:44:57;;;;;;;9.82;3.53;;;;;;;9.66;100.00;101177.78;4984554;28;20061;-66
2022/12/25 10:47:27;;;;;;;7.75;4.22;;;;;;;9.67;100.00;101184.66;4973230;28;20080;-65
2022/12/25 10:49:55;;;;;;;8.73;3.88;;;;;;;9.65;100.00;101183.97;4989457;28;20046;-63
2022/12/25 10:52:25;;;;;;;6.28;3.78;;;;;;;9.62;100.00;101178.16;4981246;28;20063;-64
2022/12/25 10:54:52;;;;;;;8.10;3.83;;;;;;;9.61;100.00;101179.94;4971965;28;20054;-64
2022/12/25 10:57:21;;;;;;;7.55;3.53;;;;;;;9.55;100.00;101182.28;4985590;28;20045;-64
2022/12/25 10:59:56;;;;;;;7.72;4.32;;;;;;;9.57;100.00;101178.56;4979399;28;20124;-64
2022/12/25 11:02:35;;;;;;;11.15;4.40;;;;;;;9.54;100.00;101184.03;4981528;28;20060;-64
2022/12/25 11:05:27;;;;;;;9.00;4.40;;;;;;;9.59;100.00;101170.56;4983494;28;20521;-64
2022/12/25 11:07:54;;;;;;;16.92;4.95;;;;;;;9.49;100.00;101170.53;4986760;28;20053;-64
2022/12/25 11:10:36;;;;;;;14.13;5.30;;;;;;;9.49;100.00;101171.34;4982006;28;20529;-64
2022/12/25 11:13:07;;;;;;;10.95;4.93;;;;;;;9.48;100.00;101168.84;4975639;28;20059;-64
2022/12/25 11:15:39;;;;;;;10.20;4.15;;;;;;;9.52;100.00;101153.72;4976763;28;20045;-66
2022/12/25 11:18:24;;;;;;;12.73;4.20;;;;;;;9.56;100.00;101144.63;4990450;28;20058;-64
2022/12/25 11:20:53;;;;;;;10.68;3.90;;;;;;;9.61;100.00;101139.84;4982146;28;20054;-65
2022/12/25 11:23:23;;;;;;;10.95;4.10;;;;;;;9.63;100.00;101138.75;4993185;28;20496;-64
2022/12/25 11:26:09;;;;;;;7.10;3.25;;;;;;;9.73;100.00;101127.47;4996671;28;20066;-63
2022/12/25 11:28:39;;;;;;;9.57;3.53;;;;;;;9.76;100.00;101130.66;4975724;28;20129;-63
2022/12/25 11:31:20;;;;;;;10.93;3.92;;;;;;;9.79;100.00;101121.69;4974878;28;20104;-64
2022/12/25 11:33:55;;;;;;;7.05;3.78;;;;;;;9.80;100.00;101111.09;4979316;28;20061;-62
2022/12/25 11:36:37;;;;;;;9.13;3.72;;;;;;;9.82;100.00;101101.31;4986835;28;20046;-63
2022/12/25 11:39:29;;;;;;;12.38;4.75;;;;;;;9.79;100.00;101101.56;4983502;28;20054;-64
2022/12/25 11:42:22;;;;;;;8.15;4.40;;;;;;;9.87;100.00;101095.66;4984457;28;20045;-65
2022/12/25 11:45:01;;;;;;;5.82;3.78;;;;;;;9.87;100.00;101085.16;4975148;28;20087;-65
2022/12/25 11:47:40;;;;;;;8.43;3.78;;;;;;;9.86;100.00;101073.88;4989098;28;20466;-65
2022/12/25 11:50:40;;;;;;;8.90;4.10;;;;;;;9.82;100.00;101072.47;4976396;28;20050;-65
2022/12/25 11:53:18;;;;;;;8.88;4.15;;;;;;;9.85;100.00;101064.34;4983426;28;20050;-66
2022/12/25 11:55:53;;;;;;;11.52;4.47;;;;;;;9.81;100.00;101072.63;4971667;28;20057;-66
2022/12/25 11:58:33;;;;;;;10.95;5.00;;;;;;;9.87;100.00;101053.72;4982042;28;20100;-66
2022/12/25 12:01:04;;;;;;;9.95;4.88;;;;;;;9.88;100.00;101060.63;4981894;28;20786;-65
2022/12/25 12:03:38;;;;;;;7.45;4.88;;;;;;;9.94;100.00;101054.84;4983808;28;20061;-65
2022/12/25 12:06:14;;;;;;;10.07;4.45;;;;;;;9.93;100.00;101044.50;4978874;28;20150;-65
2022/12/25 12:08:41;;;;;;;8.82;3.92;;;;;;;10.01;100.00;101049.88;4970907;28;20058;-65
2022/12/25 12:11:23;;;;;;;13.90;6.50;;;;;;;10.04;100.00;101047.81;4981700;28;20050;-65
2022/12/25 12:13:50;;;;;;;11.93;5.82;;;;;;;9.99;100.00;101038.69;4979721;28;20133;-65
2022/12/25 12:16:16;;;;;;;8.63;4.63;;;;;;;9.97;100.00;101045.88;4987547;28;20054;-66
2022/12/25 12:18:44;;;;;;;9.20;4.78;;;;;;;9.96;100.00;101049.44;4986811;28;20054;-65
2022/12/25 12:21:26;;;;;;;9.77;4.00;;;;;;;10.00;100.00;101048.25;4978794;28;20108;-65
2022/12/25 12:24:04;;;;;;;11.43;4.35;;;;;;;10.03;100.00;101032.22;4974668;28;20904;-65
2022/12/25 12:26:36;;;;;;;7.80;4.32;;;;;;;10.02;100.00;101041.88;4979771;28;20145;-64
2022/12/25 12:29:07;;;;;;;10.55;4.85;;;;;;;10.08;100.00;101035.28;4985326;28;20078;-65
2022/12/25 12:31:39;;;;;;;7.75;4.78;;;;;;;10.11;100.00;101032.34;4979359;28;20640;-64
2022/12/25 12:34:25;;;;;;;10.70;5.00;;;;;;;10.07;100.00;101028.34;4990309;28;20046;-65
2022/12/25 12:37:05;;;;;;;10.82;4.60;;;;;;;10.09;100.00;101029.91;4976521;28;20419;-64
2022/12/25 12:39:38;;;;;;;8.55;4.78;;;;;;;10.09;100.00;101022.03;4971961;28;20073;-64
2022/12/25 12:42:34;;;;;;;10.68;5.03;;;;;;;10.09;100.00;101035.13;4984962;28;20822;-64
2022/12/25 12:45:14;;;;;;;8.93;4.63;;;;;;;10.02;100.00;101026.16;4990068;28;20050;-64
2022/12/25 12:47:46;;;;;;;10.25;4.88;;;;;;;9.98;100.00;101026.59;4984387;28;20050;-65
2022/12/25 12:50:33;;;;;;;9.13;4.30;;;;;;;9.96;100.00;101029.34;4975329;28;20796;-66
2022/12/25 12:53:16;;;;;;;8.00;3.92;;;;;;;9.95;100.00;101019.81;4981281;28;20557;-65
2022/12/25 12:55:42;;;;;;;7.40;4.28;;;;;;;9.92;100.00;101008.75;4978144;28;20138;-64
2022/12/25 12:58:26;;;;;;;10.02;4.40;;;;;;;9.98;100.00;101009.06;4983384;28;20065;-65
2022/12/25 13:01:17;;;;;;;8.63;4.40;;;;;;;10.00;100.00;100993.19;4981755;28;20054;-66
2022/12/25 13:04:13;;;;;;;9.25;4.88;;;;;;;10.02;100.00;100993.88;5001081;28;20045;-66
2022/12/25 13:06:49;;;;;;;10.70;5.45;;;;;;;10.02;100.00;100991.28;4984178;28;20399;-65
2022/12/25 13:09:33;;;;;;;11.70;6.47;;;;;;;9.97;100.00;100991.66;5000488;28;20053;-65
2022/12/25 13:12:05;;;;;;;8.15;5.20;;;;;;;10.02;100.00;100991.28;4986091;28;20400;-64
2022/12/25 13:14:32;;;;;;;9.80;5.30;;;;;;;9.96;100.00;100990.03;4983671;28;20447;-65
2022/12/25 13:16:58;;;;;;;10.60;5.05;;;;;;;10.02;100.00;100983.41;4993876;28;20058;-66
2022/12/25 13:19:27;;;;;;;9.90;5.20;;;;;;;10.07;100.00;100979.41;4979427;28;20058;-64
2022/12/25 13:21:55;;;;;;;10.07;5.10;;;;;;;10.05;100.00;100975.25;4990442;28;20408;-65
2022/12/25 13:24:26;;;;;;;15.25;5.53;;;;;;;10.09;100.00;100977.47;4979793;28;20050;-64